sensor_id;sensor_type;location;lat;lon;timestamp;pressure;altitude;pressure_sealevel;temperature;humidity
84994;BME280;75309;44.830;20.460;2024-01-27T00:02:00;101416.32;;;8.35;62.17
84994;BME280;75309;44.830;20.460;2024-01-27T00:04:29;101413.33;;;8.37;61.94
84994;BME280;75309;44.830;20.460;2024-01-27T00:06:57;101417.56;;;8.36;61.91
84994;BME280;75309;44.830;20.460;2024-01-27T00:09:25;101419.20;;;8.30;61.86
84994;BME280;75309;44.830;20.460;2024-01-27T00:11:54;101420.56;;;8.25;61.81
84994;BME280;75309;44.830;20.460;2024-01-27T00:14:21;101422.12;;;8.20;62.13
84994;BME280;75309;44.830;20.460;2024-01-27T00:16:50;101421.17;;;8.14;62.26
84994;BME280;75309;44.830;20.460;2024-01-27T00:19:17;101417.11;;;8.10;62.37
84994;BME280;75309;44.830;20.460;2024-01-27T00:21:46;101411.55;;;8.06;62.50
84994;BME280;75309;44.830;20.460;2024-01-27T00:24:14;101408.91;;;8.03;62.80
84994;BME280;75309;44.830;20.460;2024-01-27T00:26:43;101404.55;;;7.99;63.09
84994;BME280;75309;44.830;20.460;2024-01-27T00:29:14;101397.08;;;7.89;63.67
84994;BME280;75309;44.830;20.460;2024-01-27T00:31:42;101397.19;;;7.82;63.55
84994;BME280;75309;44.830;20.460;2024-01-27T00:34:10;101402.86;;;7.77;63.76
84994;BME280;75309;44.830;20.460;2024-01-27T00:36:38;101395.23;;;7.73;63.99
84994;BME280;75309;44.830;20.460;2024-01-27T00:39:06;101394.75;;;7.72;64.30
84994;BME280;75309;44.830;20.460;2024-01-27T00:41:36;101394.12;;;7.70;64.42
84994;BME280;75309;44.830;20.460;2024-01-27T00:44:04;101387.19;;;7.71;64.51
84994;BME280;75309;44.830;20.460;2024-01-27T00:46:32;101379.55;;;7.74;64.57
84994;BME280;75309;44.830;20.460;2024-01-27T00:49:00;101374.45;;;7.76;64.96
84994;BME280;75309;44.830;20.460;2024-01-27T00:51:28;101372.50;;;7.80;65.30
84994;BME280;75309;44.830;20.460;2024-01-27T00:53:56;101360.56;;;7.87;64.97
84994;BME280;75309;44.830;20.460;2024-01-27T00:56:24;101366.11;;;7.98;65.02
84994;BME280;75309;44.830;20.460;2024-01-27T00:58:53;101361.59;;;8.09;64.68
84994;BME280;75309;44.830;20.460;2024-01-27T01:01:21;101361.27;;;8.19;64.23
84994;BME280;75309;44.830;20.460;2024-01-27T01:03:49;101355.59;;;8.28;63.88
84994;BME280;75309;44.830;20.460;2024-01-27T01:06:17;101351.29;;;8.36;63.65
84994;BME280;75309;44.830;20.460;2024-01-27T01:08:45;101350.20;;;8.40;63.24
84994;BME280;75309;44.830;20.460;2024-01-27T01:11:14;101351.59;;;8.43;62.88
84994;BME280;75309;44.830;20.460;2024-01-27T01:13:42;101354.27;;;8.47;62.64
84994;BME280;75309;44.830;20.460;2024-01-27T01:16:10;101358.96;;;8.50;62.37
84994;BME280;75309;44.830;20.460;2024-01-27T01:18:39;101370.06;;;8.50;62.07
84994;BME280;75309;44.830;20.460;2024-01-27T01:21:07;101373.30;;;8.45;61.99
84994;BME280;75309;44.830;20.460;2024-01-27T01:23:35;101378.97;;;8.36;62.10
84994;BME280;75309;44.830;20.460;2024-01-27T01:26:03;101387.57;;;8.32;62.16
84994;BME280;75309;44.830;20.460;2024-01-27T01:28:31;101384.83;;;8.26;62.25
84994;BME280;75309;44.830;20.460;2024-01-27T01:31:00;101380.65;;;8.18;62.46
84994;BME280;75309;44.830;20.460;2024-01-27T01:33:28;101386.73;;;8.07;62.86
84994;BME280;75309;44.830;20.460;2024-01-27T01:35:56;101377.80;;;7.95;63.59
84994;BME280;75309;44.830;20.460;2024-01-27T01:38:24;101380.34;;;7.87;63.51
84994;BME280;75309;44.830;20.460;2024-01-27T01:40:52;101392.93;;;7.82;63.84
84994;BME280;75309;44.830;20.460;2024-01-27T01:43:20;101392.98;;;7.78;63.63
84994;BME280;75309;44.830;20.460;2024-01-27T01:45:48;101391.86;;;7.74;63.83
84994;BME280;75309;44.830;20.460;2024-01-27T01:48:18;101392.52;;;7.69;64.12
84994;BME280;75309;44.830;20.460;2024-01-27T01:50:47;101392.71;;;7.67;63.90
84994;BME280;75309;44.830;20.460;2024-01-27T01:53:16;101391.94;;;7.63;63.93
84994;BME280;75309;44.830;20.460;2024-01-27T01:55:44;101391.88;;;7.60;64.46
84994;BME280;75309;44.830;20.460;2024-01-27T01:58:14;101403.22;;;7.59;64.90
84994;BME280;75309;44.830;20.460;2024-01-27T02:00:42;101403.95;;;7.57;65.32
84994;BME280;75309;44.830;20.460;2024-01-27T02:03:12;101406.42;;;7.58;65.17
84994;BME280;75309;44.830;20.460;2024-01-27T02:05:41;101434.66;;;7.59;65.07
84994;BME280;75309;44.830;20.460;2024-01-27T02:08:09;101530.38;;;7.55;65.27
84994;BME280;75309;44.830;20.460;2024-01-27T02:10:37;101602.43;;;7.40;66.99
84994;BME280;75309;44.830;20.460;2024-01-27T02:15:46;101600.77;;;6.66;69.00
84994;BME280;75309;44.830;20.460;2024-01-27T02:18:14;101574.60;;;6.41;69.47
84994;BME280;75309;44.830;20.460;2024-01-27T02:20:43;101569.20;;;6.25;69.94
84994;BME280;75309;44.830;20.460;2024-01-27T02:23:11;101564.05;;;6.16;70.06
84994;BME280;75309;44.830;20.460;2024-01-27T02:25:39;101567.61;;;6.15;69.80
84994;BME280;75309;44.830;20.460;2024-01-27T02:28:07;101561.42;;;6.13;69.57
84994;BME280;75309;44.830;20.460;2024-01-27T02:30:35;101555.95;;;6.16;69.96
84994;BME280;75309;44.830;20.460;2024-01-27T02:33:04;101553.19;;;6.25;70.10
84994;BME280;75309;44.830;20.460;2024-01-27T02:35:32;101535.58;;;6.32;69.67
84994;BME280;75309;44.830;20.460;2024-01-27T02:38:01;101530.86;;;6.39;69.28
84994;BME280;75309;44.830;20.460;2024-01-27T02:40:29;101530.60;;;6.47;69.06
84994;BME280;75309;44.830;20.460;2024-01-27T02:42:57;101531.48;;;6.53;68.71
84994;BME280;75309;44.830;20.460;2024-01-27T02:45:26;101535.33;;;6.64;68.82
84994;BME280;75309;44.830;20.460;2024-01-27T02:47:54;101533.98;;;6.73;68.87
84994;BME280;75309;44.830;20.460;2024-01-27T02:50:22;101530.23;;;6.83;68.63
84994;BME280;75309;44.830;20.460;2024-01-27T02:52:50;101529.67;;;6.91;68.20
84994;BME280;75309;44.830;20.460;2024-01-27T02:55:18;101533.91;;;6.91;68.08
84994;BME280;75309;44.830;20.460;2024-01-27T02:57:47;101539.31;;;6.90;68.09
84994;BME280;75309;44.830;20.460;2024-01-27T03:00:15;101531.42;;;6.92;68.05
84994;BME280;75309;44.830;20.460;2024-01-27T03:02:44;101534.86;;;6.97;68.53
84994;BME280;75309;44.830;20.460;2024-01-27T03:05:12;101534.73;;;7.02;68.60
84994;BME280;75309;44.830;20.460;2024-01-27T03:07:42;101538.54;;;7.07;68.84
84994;BME280;75309;44.830;20.460;2024-01-27T03:10:10;101550.77;;;7.13;68.28
84994;BME280;75309;44.830;20.460;2024-01-27T03:12:38;101546.91;;;7.19;68.12
84994;BME280;75309;44.830;20.460;2024-01-27T03:15:07;101549.72;;;7.20;67.77
84994;BME280;75309;44.830;20.460;2024-01-27T03:17:35;101543.48;;;7.20;67.72
84994;BME280;75309;44.830;20.460;2024-01-27T03:20:04;101542.61;;;7.22;67.65
84994;BME280;75309;44.830;20.460;2024-01-27T03:22:32;101540.23;;;7.23;67.44
84994;BME280;75309;44.830;20.460;2024-01-27T03:25:00;101540.58;;;7.25;67.96
84994;BME280;75309;44.830;20.460;2024-01-27T03:27:28;101549.48;;;7.28;68.32
84994;BME280;75309;44.830;20.460;2024-01-27T03:30:00;101548.52;;;7.31;68.33
84994;BME280;75309;44.830;20.460;2024-01-27T03:32:30;101555.75;;;7.32;67.97
84994;BME280;75309;44.830;20.460;2024-01-27T03:35:02;101558.81;;;7.34;67.82
84994;BME280;75309;44.830;20.460;2024-01-27T03:37:30;101564.37;;;7.33;67.81
84994;BME280;75309;44.830;20.460;2024-01-27T03:39:59;101571.06;;;7.34;67.77
84994;BME280;75309;44.830;20.460;2024-01-27T03:42:27;101584.52;;;7.31;67.87
84994;BME280;75309;44.830;20.460;2024-01-27T03:44:55;101585.09;;;7.32;68.34
84994;BME280;75309;44.830;20.460;2024-01-27T03:47:23;101584.85;;;7.33;68.55
84994;BME280;75309;44.830;20.460;2024-01-27T03:49:51;101579.88;;;7.31;68.57
84994;BME280;75309;44.830;20.460;2024-01-27T03:52:20;101583.76;;;7.28;68.27
84994;BME280;75309;44.830;20.460;2024-01-27T03:54:50;101596.35;;;7.27;68.01
84994;BME280;75309;44.830;20.460;2024-01-27T03:57:17;101597.68;;;7.27;68.11
84994;BME280;75309;44.830;20.460;2024-01-27T03:59:46;101608.95;;;7.27;68.00
84994;BME280;75309;44.830;20.460;2024-01-27T04:02:14;101608.13;;;7.23;68.03
84994;BME280;75309;44.830;20.460;2024-01-27T04:04:42;101610.13;;;7.20;68.08
84994;BME280;75309;44.830;20.460;2024-01-27T04:07:10;101620.04;;;7.21;68.06
84994;BME280;75309;44.830;20.460;2024-01-27T04:09:38;101617.73;;;7.24;67.92
84994;BME280;75309;44.830;20.460;2024-01-27T04:12:07;101623.63;;;7.30;66.93
84994;BME280;75309;44.830;20.460;2024-01-27T04:14:36;101635.36;;;7.27;66.78
84994;BME280;75309;44.830;20.460;2024-01-27T04:17:04;101633.70;;;7.27;66.70
84994;BME280;75309;44.830;20.460;2024-01-27T04:19:32;101641.84;;;7.25;66.62
84994;BME280;75309;44.830;20.460;2024-01-27T04:22:01;101650.02;;;7.20;66.43
84994;BME280;75309;44.830;20.460;2024-01-27T04:24:29;101654.10;;;7.16;66.23
84994;BME280;75309;44.830;20.460;2024-01-27T04:26:58;101663.02;;;7.14;66.33
84994;BME280;75309;44.830;20.460;2024-01-27T04:29:26;101671.04;;;7.14;66.02
84994;BME280;75309;44.830;20.460;2024-01-27T04:31:54;101678.42;;;7.13;65.69
84994;BME280;75309;44.830;20.460;2024-01-27T04:34:23;101687.95;;;7.10;65.59
84994;BME280;75309;44.830;20.460;2024-01-27T04:36:51;101690.90;;;7.07;65.83
84994;BME280;75309;44.830;20.460;2024-01-27T04:39:20;101690.16;;;6.98;66.00
84994;BME280;75309;44.830;20.460;2024-01-27T04:41:48;101687.40;;;6.92;65.65
84994;BME280;75309;44.830;20.460;2024-01-27T04:44:16;101692.71;;;6.91;65.47
84994;BME280;75309;44.830;20.460;2024-01-27T04:46:44;101691.61;;;6.90;65.40
84994;BME280;75309;44.830;20.460;2024-01-27T04:49:12;101709.57;;;6.89;65.38
84994;BME280;75309;44.830;20.460;2024-01-27T04:51:40;101720.13;;;6.90;65.14
84994;BME280;75309;44.830;20.460;2024-01-27T04:54:09;101724.85;;;6.88;64.74
84994;BME280;75309;44.830;20.460;2024-01-27T04:56:37;101716.90;;;6.80;64.11
84994;BME280;75309;44.830;20.460;2024-01-27T04:59:05;101717.46;;;6.79;63.82
84994;BME280;75309;44.830;20.460;2024-01-27T05:01:33;101718.58;;;6.78;63.59
84994;BME280;75309;44.830;20.460;2024-01-27T05:04:01;101716.29;;;6.77;63.23
84994;BME280;75309;44.830;20.460;2024-01-27T05:06:29;101721.70;;;6.76;63.26
84994;BME280;75309;44.830;20.460;2024-01-27T05:08:57;101715.08;;;6.79;63.05
84994;BME280;75309;44.830;20.460;2024-01-27T05:11:30;101715.85;;;6.76;62.95
84994;BME280;75309;44.830;20.460;2024-01-27T05:14:01;101732.73;;;6.72;62.96
84994;BME280;75309;44.830;20.460;2024-01-27T05:16:29;101732.23;;;6.66;63.03
84994;BME280;75309;44.830;20.460;2024-01-27T05:18:57;101743.94;;;6.61;63.18
84994;BME280;75309;44.830;20.460;2024-01-27T05:21:25;101750.52;;;6.55;63.52
84994;BME280;75309;44.830;20.460;2024-01-27T05:23:53;101760.59;;;6.52;63.59
84994;BME280;75309;44.830;20.460;2024-01-27T05:26:22;101764.17;;;6.50;62.87
84994;BME280;75309;44.830;20.460;2024-01-27T05:28:50;101770.27;;;6.48;62.63
84994;BME280;75309;44.830;20.460;2024-01-27T05:31:18;101764.21;;;6.46;62.28
84994;BME280;75309;44.830;20.460;2024-01-27T05:33:47;101784.64;;;6.46;61.80
84994;BME280;75309;44.830;20.460;2024-01-27T05:36:16;101788.11;;;6.47;61.77
84994;BME280;75309;44.830;20.460;2024-01-27T05:38:44;101787.70;;;6.44;61.84
84994;BME280;75309;44.830;20.460;2024-01-27T05:41:12;101794.64;;;6.40;61.70
84994;BME280;75309;44.830;20.460;2024-01-27T05:43:40;101804.33;;;6.39;61.67
84994;BME280;75309;44.830;20.460;2024-01-27T05:46:08;101820.50;;;6.39;61.32
84994;BME280;75309;44.830;20.460;2024-01-27T05:48:37;101818.77;;;6.41;61.28
84994;BME280;75309;44.830;20.460;2024-01-27T05:51:06;101815.04;;;6.41;61.36
84994;BME280;75309;44.830;20.460;2024-01-27T05:53:35;101821.09;;;6.38;61.25
84994;BME280;75309;44.830;20.460;2024-01-27T05:56:03;101823.73;;;6.37;61.24
84994;BME280;75309;44.830;20.460;2024-01-27T05:58:31;101840.83;;;6.36;61.71
84994;BME280;75309;44.830;20.460;2024-01-27T06:00:59;101840.67;;;6.32;62.03
84994;BME280;75309;44.830;20.460;2024-01-27T06:03:27;101846.23;;;6.30;62.37
84994;BME280;75309;44.830;20.460;2024-01-27T06:05:56;101854.82;;;6.24;63.31
84994;BME280;75309;44.830;20.460;2024-01-27T06:08:24;101860.15;;;6.19;63.32
84994;BME280;75309;44.830;20.460;2024-01-27T06:10:51;101868.41;;;6.16;63.76
84994;BME280;75309;44.830;20.460;2024-01-27T06:13:20;101875.67;;;6.13;63.52
84994;BME280;75309;44.830;20.460;2024-01-27T06:15:48;101881.95;;;6.15;63.90
84994;BME280;75309;44.830;20.460;2024-01-27T06:18:16;101893.46;;;6.14;63.98
84994;BME280;75309;44.830;20.460;2024-01-27T06:20:45;101897.95;;;6.13;63.78
84994;BME280;75309;44.830;20.460;2024-01-27T06:23:13;101901.27;;;6.14;63.60
84994;BME280;75309;44.830;20.460;2024-01-27T06:25:42;101906.67;;;6.15;63.63
84994;BME280;75309;44.830;20.460;2024-01-27T06:28:10;101914.48;;;6.17;63.36
84994;BME280;75309;44.830;20.460;2024-01-27T06:30:38;101916.59;;;6.22;62.76
84994;BME280;75309;44.830;20.460;2024-01-27T06:33:06;101919.29;;;6.21;62.50
84994;BME280;75309;44.830;20.460;2024-01-27T06:35:35;101926.55;;;6.25;62.51
84994;BME280;75309;44.830;20.460;2024-01-27T06:38:03;101926.92;;;6.27;62.25
84994;BME280;75309;44.830;20.460;2024-01-27T06:40:31;101935.13;;;6.30;62.05
84994;BME280;75309;44.830;20.460;2024-01-27T06:42:59;101936.98;;;6.32;62.08
84994;BME280;75309;44.830;20.460;2024-01-27T06:45:31;101943.96;;;6.30;62.48
84994;BME280;75309;44.830;20.460;2024-01-27T06:47:59;101942.30;;;6.28;62.74
84994;BME280;75309;44.830;20.460;2024-01-27T06:50:27;101941.67;;;6.24;63.02
84994;BME280;75309;44.830;20.460;2024-01-27T06:52:55;101942.39;;;6.23;63.02
84994;BME280;75309;44.830;20.460;2024-01-27T06:55:23;101953.88;;;6.22;63.16
84994;BME280;75309;44.830;20.460;2024-01-27T06:57:51;101965.95;;;6.16;63.46
84994;BME280;75309;44.830;20.460;2024-01-27T07:00:20;101949.67;;;6.09;63.30
84994;BME280;75309;44.830;20.460;2024-01-27T07:02:48;101956.41;;;6.06;63.15
84994;BME280;75309;44.830;20.460;2024-01-27T07:05:16;101960.02;;;6.00;63.70
84994;BME280;75309;44.830;20.460;2024-01-27T07:07:45;101967.08;;;5.98;63.54
84994;BME280;75309;44.830;20.460;2024-01-27T07:10:13;101975.41;;;5.94;63.82
84994;BME280;75309;44.830;20.460;2024-01-27T07:12:42;101976.87;;;5.95;63.13
84994;BME280;75309;44.830;20.460;2024-01-27T07:15:10;101975.52;;;5.95;62.86
84994;BME280;75309;44.830;20.460;2024-01-27T07:17:39;101971.75;;;5.97;62.58
84994;BME280;75309;44.830;20.460;2024-01-27T07:20:10;101972.59;;;5.99;62.67
84994;BME280;75309;44.830;20.460;2024-01-27T07:22:38;101971.33;;;6.00;62.76
84994;BME280;75309;44.830;20.460;2024-01-27T07:25:07;101978.61;;;5.99;62.64
84994;BME280;75309;44.830;20.460;2024-01-27T07:27:38;101986.07;;;5.99;62.53
84994;BME280;75309;44.830;20.460;2024-01-27T07:30:07;101999.88;;;5.99;62.73
84994;BME280;75309;44.830;20.460;2024-01-27T07:32:37;101994.65;;;6.00;62.52
84994;BME280;75309;44.830;20.460;2024-01-27T07:35:05;101992.97;;;6.00;62.91
84994;BME280;75309;44.830;20.460;2024-01-27T07:37:33;102000.84;;;5.99;62.61
84994;BME280;75309;44.830;20.460;2024-01-27T07:40:01;102011.17;;;5.98;62.93
84994;BME280;75309;44.830;20.460;2024-01-27T07:42:30;102005.85;;;5.99;62.92
84994;BME280;75309;44.830;20.460;2024-01-27T07:44:58;102007.00;;;5.99;62.79
84994;BME280;75309;44.830;20.460;2024-01-27T07:47:26;102015.09;;;6.00;62.98
84994;BME280;75309;44.830;20.460;2024-01-27T07:49:54;102014.73;;;6.00;62.87
84994;BME280;75309;44.830;20.460;2024-01-27T07:52:25;102016.75;;;6.00;63.05
84994;BME280;75309;44.830;20.460;2024-01-27T07:54:54;102017.64;;;6.02;62.66
84994;BME280;75309;44.830;20.460;2024-01-27T07:57:24;102016.83;;;6.02;62.53
84994;BME280;75309;44.830;20.460;2024-01-27T07:59:52;102026.33;;;6.02;62.56
84994;BME280;75309;44.830;20.460;2024-01-27T08:02:20;102014.45;;;6.02;62.55
84994;BME280;75309;44.830;20.460;2024-01-27T08:04:48;102010.60;;;6.03;62.34
84994;BME280;75309;44.830;20.460;2024-01-27T08:07:19;102018.35;;;6.02;62.18
84994;BME280;75309;44.830;20.460;2024-01-27T08:09:47;102014.45;;;6.04;61.29
84994;BME280;75309;44.830;20.460;2024-01-27T08:12:15;101997.32;;;6.07;61.73
84994;BME280;75309;44.830;20.460;2024-01-27T08:14:45;101994.13;;;6.07;60.77
84994;BME280;75309;44.830;20.460;2024-01-27T08:17:12;101992.60;;;6.09;61.19
84994;BME280;75309;44.830;20.460;2024-01-27T08:19:42;101989.73;;;6.11;61.28
84994;BME280;75309;44.830;20.460;2024-01-27T08:22:10;102003.13;;;6.13;60.47
84994;BME280;75309;44.830;20.460;2024-01-27T08:24:38;102008.29;;;6.15;60.35
84994;BME280;75309;44.830;20.460;2024-01-27T08:27:06;102006.73;;;6.17;60.26
84994;BME280;75309;44.830;20.460;2024-01-27T08:29:34;102000.47;;;6.19;59.85
84994;BME280;75309;44.830;20.460;2024-01-27T08:32:03;102011.86;;;6.21;59.99
84994;BME280;75309;44.830;20.460;2024-01-27T08:34:31;102012.17;;;6.24;58.44
84994;BME280;75309;44.830;20.460;2024-01-27T08:37:00;102017.39;;;6.28;58.37
84994;BME280;75309;44.830;20.460;2024-01-27T08:39:30;102023.79;;;6.31;57.76
84994;BME280;75309;44.830;20.460;2024-01-27T08:41:59;102028.64;;;6.32;58.15
84994;BME280;75309;44.830;20.460;2024-01-27T08:44:27;102034.71;;;6.35;57.39
84994;BME280;75309;44.830;20.460;2024-01-27T08:46:55;102048.66;;;6.37;57.78
84994;BME280;75309;44.830;20.460;2024-01-27T08:49:28;102047.77;;;6.40;57.30
84994;BME280;75309;44.830;20.460;2024-01-27T08:51:57;102044.95;;;6.41;57.36
84994;BME280;75309;44.830;20.460;2024-01-27T08:54:25;102051.77;;;6.43;57.20
84994;BME280;75309;44.830;20.460;2024-01-27T08:56:53;102062.39;;;6.48;56.64
84994;BME280;75309;44.830;20.460;2024-01-27T08:59:21;102057.94;;;6.51;56.24
84994;BME280;75309;44.830;20.460;2024-01-27T09:01:49;102062.17;;;6.57;56.23
84994;BME280;75309;44.830;20.460;2024-01-27T09:04:18;102066.42;;;6.59;56.43
84994;BME280;75309;44.830;20.460;2024-01-27T09:06:46;102074.19;;;6.62;55.28
84994;BME280;75309;44.830;20.460;2024-01-27T09:09:15;102084.67;;;6.65;55.54
84994;BME280;75309;44.830;20.460;2024-01-27T09:11:43;102079.95;;;6.66;55.89
84994;BME280;75309;44.830;20.460;2024-01-27T09:14:11;102104.86;;;6.68;55.49
84994;BME280;75309;44.830;20.460;2024-01-27T09:16:39;102107.91;;;6.70;54.69
84994;BME280;75309;44.830;20.460;2024-01-27T09:19:08;102130.29;;;6.71;55.17
84994;BME280;75309;44.830;20.460;2024-01-27T09:21:37;102133.33;;;6.70;55.64
84994;BME280;75309;44.830;20.460;2024-01-27T09:24:06;102136.08;;;6.70;54.81
84994;BME280;75309;44.830;20.460;2024-01-27T09:26:35;102146.45;;;6.72;54.77
84994;BME280;75309;44.830;20.460;2024-01-27T09:29:03;102142.56;;;6.73;54.77
84994;BME280;75309;44.830;20.460;2024-01-27T09:31:31;102149.86;;;6.72;53.81
84994;BME280;75309;44.830;20.460;2024-01-27T09:33:59;102150.94;;;6.73;53.50
84994;BME280;75309;44.830;20.460;2024-01-27T09:36:28;102151.70;;;6.72;53.58
84994;BME280;75309;44.830;20.460;2024-01-27T09:38:56;102155.05;;;6.73;54.07
84994;BME280;75309;44.830;20.460;2024-01-27T09:41:27;102162.27;;;6.72;54.73
84994;BME280;75309;44.830;20.460;2024-01-27T09:44:03;102157.98;;;6.73;52.74
84994;BME280;75309;44.830;20.460;2024-01-27T09:46:33;102168.34;;;6.75;53.56
84994;BME280;75309;44.830;20.460;2024-01-27T09:49:02;102166.34;;;6.77;53.92
84994;BME280;75309;44.830;20.460;2024-01-27T09:51:32;102169.14;;;6.80;54.02
84994;BME280;75309;44.830;20.460;2024-01-27T09:54:00;102156.54;;;6.80;53.94
84994;BME280;75309;44.830;20.460;2024-01-27T09:56:28;102155.90;;;6.81;53.25
84994;BME280;75309;44.830;20.460;2024-01-27T09:58:57;102163.52;;;6.82;53.68
84994;BME280;75309;44.830;20.460;2024-01-27T10:01:26;102149.98;;;6.79;54.12
84994;BME280;75309;44.830;20.460;2024-01-27T10:03:57;102144.00;;;6.79;53.28
84994;BME280;75309;44.830;20.460;2024-01-27T10:06:27;102128.99;;;6.79;53.76
84994;BME280;75309;44.830;20.460;2024-01-27T10:08:55;102130.05;;;6.79;53.60
84994;BME280;75309;44.830;20.460;2024-01-27T10:11:24;102136.75;;;6.80;54.49
84994;BME280;75309;44.830;20.460;2024-01-27T10:13:57;102136.42;;;6.74;55.44
84994;BME280;75309;44.830;20.460;2024-01-27T10:16:28;102131.34;;;6.73;55.36
84994;BME280;75309;44.830;20.460;2024-01-27T10:19:03;102129.70;;;6.75;55.62
84994;BME280;75309;44.830;20.460;2024-01-27T10:21:32;102119.76;;;6.75;55.80
84994;BME280;75309;44.830;20.460;2024-01-27T10:24:00;102124.98;;;6.68;56.52
84994;BME280;75309;44.830;20.460;2024-01-27T10:26:32;102130.65;;;6.71;55.97
84994;BME280;75309;44.830;20.460;2024-01-27T10:29:01;102114.45;;;6.74;54.99
84994;BME280;75309;44.830;20.460;2024-01-27T10:31:32;102109.91;;;6.79;54.91
84994;BME280;75309;44.830;20.460;2024-01-27T10:34:01;102119.40;;;6.76;55.67
84994;BME280;75309;44.830;20.460;2024-01-27T10:36:42;102112.94;;;6.73;55.19
84994;BME280;75309;44.830;20.460;2024-01-27T10:39:21;102105.65;;;6.75;54.44
84994;BME280;75309;44.830;20.460;2024-01-27T10:41:50;102110.17;;;6.76;54.52
84994;BME280;75309;44.830;20.460;2024-01-27T10:44:19;102101.86;;;6.83;54.46
84994;BME280;75309;44.830;20.460;2024-01-27T10:46:49;102110.98;;;6.89;53.53
84994;BME280;75309;44.830;20.460;2024-01-27T10:49:18;102139.17;;;6.92;52.24
84994;BME280;75309;44.830;20.460;2024-01-27T10:51:56;102121.52;;;6.95;52.07
84994;BME280;75309;44.830;20.460;2024-01-27T10:54:26;102111.45;;;7.01;52.14
84994;BME280;75309;44.830;20.460;2024-01-27T10:56:56;102124.88;;;7.04;51.90
84994;BME280;75309;44.830;20.460;2024-01-27T10:59:26;102133.05;;;7.06;52.16
84994;BME280;75309;44.830;20.460;2024-01-27T11:01:56;102114.20;;;7.07;52.14
84994;BME280;75309;44.830;20.460;2024-01-27T11:04:24;102117.64;;;7.11;52.51
84994;BME280;75309;44.830;20.460;2024-01-27T11:06:55;102107.85;;;7.14;52.30
84994;BME280;75309;44.830;20.460;2024-01-27T11:09:24;102103.67;;;7.19;53.04
84994;BME280;75309;44.830;20.460;2024-01-27T11:11:53;102096.12;;;7.25;53.89
84994;BME280;75309;44.830;20.460;2024-01-27T11:14:22;102092.45;;;7.34;52.92
84994;BME280;75309;44.830;20.460;2024-01-27T11:16:55;102097.16;;;7.43;51.63
84994;BME280;75309;44.830;20.460;2024-01-27T11:19:23;102091.83;;;7.45;51.44
84994;BME280;75309;44.830;20.460;2024-01-27T11:22:04;102102.73;;;7.39;50.81
84994;BME280;75309;44.830;20.460;2024-01-27T11:24:32;102100.33;;;7.32;50.73
84994;BME280;75309;44.830;20.460;2024-01-27T11:27:05;102094.70;;;7.28;50.76
84994;BME280;75309;44.830;20.460;2024-01-27T11:29:35;102095.45;;;7.25;51.36
84994;BME280;75309;44.830;20.460;2024-01-27T11:32:04;102095.77;;;7.26;51.41
84994;BME280;75309;44.830;20.460;2024-01-27T11:34:47;102093.21;;;7.33;52.11
84994;BME280;75309;44.830;20.460;2024-01-27T11:37:16;102086.78;;;7.46;53.40
84994;BME280;75309;44.830;20.460;2024-01-27T11:39:45;102089.30;;;7.49;53.15
84994;BME280;75309;44.830;20.460;2024-01-27T11:42:14;102093.27;;;7.50;52.08
84994;BME280;75309;44.830;20.460;2024-01-27T11:44:43;102084.48;;;7.51;51.95
84994;BME280;75309;44.830;20.460;2024-01-27T11:47:17;102095.44;;;7.47;52.05
84994;BME280;75309;44.830;20.460;2024-01-27T11:49:53;102083.98;;;7.43;52.16
84994;BME280;75309;44.830;20.460;2024-01-27T11:52:23;102087.95;;;7.41;52.95
84994;BME280;75309;44.830;20.460;2024-01-27T11:54:59;102077.54;;;7.43;52.97
84994;BME280;75309;44.830;20.460;2024-01-27T11:57:28;102077.65;;;7.44;52.82
84994;BME280;75309;44.830;20.460;2024-01-27T11:59:56;102081.64;;;7.43;53.09
84994;BME280;75309;44.830;20.460;2024-01-27T12:02:24;102078.64;;;7.40;53.97
84994;BME280;75309;44.830;20.460;2024-01-27T12:04:53;102091.81;;;7.39;53.15
84994;BME280;75309;44.830;20.460;2024-01-27T12:07:22;102082.07;;;7.38;53.10
84994;BME280;75309;44.830;20.460;2024-01-27T12:09:51;102087.75;;;7.41;52.98
84994;BME280;75309;44.830;20.460;2024-01-27T12:12:20;102083.01;;;7.39;52.83
84994;BME280;75309;44.830;20.460;2024-01-27T12:14:48;102073.69;;;7.42;53.34
84994;BME280;75309;44.830;20.460;2024-01-27T12:17:17;102081.04;;;7.48;53.10
84994;BME280;75309;44.830;20.460;2024-01-27T12:19:47;102065.03;;;7.51;53.98
84994;BME280;75309;44.830;20.460;2024-01-27T12:22:26;102076.62;;;7.51;52.60
84994;BME280;75309;44.830;20.460;2024-01-27T12:24:56;102071.10;;;7.46;52.03
84994;BME280;75309;44.830;20.460;2024-01-27T12:27:35;102066.52;;;7.44;52.07
84994;BME280;75309;44.830;20.460;2024-01-27T12:30:05;102068.77;;;7.46;51.82
84994;BME280;75309;44.830;20.460;2024-01-27T12:32:33;102075.19;;;7.48;51.97
84994;BME280;75309;44.830;20.460;2024-01-27T12:35:05;102081.05;;;7.44;50.69
84994;BME280;75309;44.830;20.460;2024-01-27T12:37:35;102078.13;;;7.38;50.90
84994;BME280;75309;44.830;20.460;2024-01-27T12:40:24;102076.02;;;7.37;50.86
84994;BME280;75309;44.830;20.460;2024-01-27T12:42:52;102069.51;;;7.39;50.86
84994;BME280;75309;44.830;20.460;2024-01-27T12:45:20;102077.72;;;7.39;50.99
84994;BME280;75309;44.830;20.460;2024-01-27T12:47:48;102076.18;;;7.45;51.33
84994;BME280;75309;44.830;20.460;2024-01-27T12:50:17;102086.02;;;7.49;51.48
84994;BME280;75309;44.830;20.460;2024-01-27T12:52:45;102077.17;;;7.47;50.92
84994;BME280;75309;44.830;20.460;2024-01-27T12:55:13;102084.20;;;7.45;51.22
84994;BME280;75309;44.830;20.460;2024-01-27T12:57:43;102078.90;;;7.45;51.59
84994;BME280;75309;44.830;20.460;2024-01-27T13:00:12;102081.17;;;7.46;52.07
84994;BME280;75309;44.830;20.460;2024-01-27T13:02:40;102082.44;;;7.47;52.07